LICA/SUF METAR and TAF weather

Enter ICAO airport designator
Station Type Date Time Source
LICA METAR 2021/04/13 08:20 UTC NOAA

LICA 130820Z AUTO 25006KT 9999 BKN030/// BKN058/// 16/12 Q1019


Station Type Date Time Source
LICA Decoded METAR 2021/04/13 08:20 UTC NOAA

Lamezia Terme, Italy (LICA) 38-54N 016-15E
Apr 13, 2021 - 04:20 AM EDT / 2021.04.13 0820 UTC
Wind: from the WSW (250 degrees) at 7 MPH (6 KT):0
Visibility: greater than 7 mile(s):0
Sky conditions: mostly cloudy
Temperature: 60 F (16 C)
Dew Point: 53 F (12 C)
Relative Humidity: 77%
Pressure (altimeter): 30.09 in. Hg (1019 hPa)
ob: LICA 130820Z AUTO 25006KT 9999 BKN030/// BKN058/// 16/12 Q1019
cycle: 8

Station Type Date Time Source
LICA TAF 2021/04/13 06:21 UTC NOAA

TAF LICA 130500Z 1306/1406 VRB05KT 9999 SCT030
TEMPO 1306/1309 SHRA
BECMG 1307/1309 27012KT
BECMG 1317/1319 VRB05KT

Example: see airport list